sensor_id;sensor_type;location;lat;lon;timestamp;temperature;humidity
5779;DHT22;2916;49.798;10.022;2023-05-07T00:02:27;14.40;99.90
5779;DHT22;2916;49.798;10.022;2023-05-07T00:04:55;14.50;99.90
5779;DHT22;2916;49.798;10.022;2023-05-07T00:07:22;14.50;99.90
5779;DHT22;2916;49.798;10.022;2023-05-07T00:09:49;14.50;99.90
5779;DHT22;2916;49.798;10.022;2023-05-07T00:12:16;14.50;99.90
5779;DHT22;2916;49.798;10.022;2023-05-07T00:14:44;14.50;99.90
5779;DHT22;2916;49.798;10.022;2023-05-07T00:17:12;14.50;99.90
5779;DHT22;2916;49.798;10.022;2023-05-07T00:19:39;14.50;99.90
5779;DHT22;2916;49.798;10.022;2023-05-07T00:22:09;14.50;99.90
5779;DHT22;2916;49.798;10.022;2023-05-07T00:24:36;14.50;99.90
5779;DHT22;2916;49.798;10.022;2023-05-07T00:27:03;14.50;99.90
5779;DHT22;2916;49.798;10.022;2023-05-07T00:29:30;14.50;99.90
5779;DHT22;2916;49.798;10.022;2023-05-07T00:31:58;14.50;99.90
5779;DHT22;2916;49.798;10.022;2023-05-07T00:34:26;14.50;98.70
5779;DHT22;2916;49.798;10.022;2023-05-07T00:36:53;14.50;98.70
5779;DHT22;2916;49.798;10.022;2023-05-07T00:39:20;14.40;99.40
5779;DHT22;2916;49.798;10.022;2023-05-07T00:41:48;14.40;99.90
5779;DHT22;2916;49.798;10.022;2023-05-07T00:44:17;14.30;99.90
5779;DHT22;2916;49.798;10.022;2023-05-07T00:46:44;14.30;99.90
5779;DHT22;2916;49.798;10.022;2023-05-07T00:49:14;14.30;99.90
5779;DHT22;2916;49.798;10.022;2023-05-07T00:51:43;14.30;99.90
5779;DHT22;2916;49.798;10.022;2023-05-07T00:54:11;14.30;99.90
5779;DHT22;2916;49.798;10.022;2023-05-07T00:56:40;14.20;99.90
5779;DHT22;2916;49.798;10.022;2023-05-07T00:59:07;14.20;99.90
5779;DHT22;2916;49.798;10.022;2023-05-07T01:01:35;14.20;99.90
5779;DHT22;2916;49.798;10.022;2023-05-07T01:04:02;14.10;99.90
5779;DHT22;2916;49.798;10.022;2023-05-07T01:06:31;14.10;99.90
5779;DHT22;2916;49.798;10.022;2023-05-07T01:09:01;14.10;99.90
5779;DHT22;2916;49.798;10.022;2023-05-07T01:11:30;14.10;99.90
5779;DHT22;2916;49.798;10.022;2023-05-07T01:13:58;14.10;99.90
5779;DHT22;2916;49.798;10.022;2023-05-07T01:16:26;14.00;99.90
5779;DHT22;2916;49.798;10.022;2023-05-07T01:18:54;14.00;99.90
5779;DHT22;2916;49.798;10.022;2023-05-07T01:21:25;13.90;99.90
5779;DHT22;2916;49.798;10.022;2023-05-07T01:23:55;13.90;99.90
5779;DHT22;2916;49.798;10.022;2023-05-07T01:26:22;13.90;99.90
5779;DHT22;2916;49.798;10.022;2023-05-07T01:28:50;13.80;99.90
5779;DHT22;2916;49.798;10.022;2023-05-07T01:31:18;13.70;99.90
5779;DHT22;2916;49.798;10.022;2023-05-07T01:33:46;13.70;99.90
5779;DHT22;2916;49.798;10.022;2023-05-07T01:36:17;13.70;99.90
5779;DHT22;2916;49.798;10.022;2023-05-07T01:38:48;13.70;99.90
5779;DHT22;2916;49.798;10.022;2023-05-07T01:41:18;13.70;99.90
5779;DHT22;2916;49.798;10.022;2023-05-07T01:43:46;13.60;99.90
5779;DHT22;2916;49.798;10.022;2023-05-07T01:46:17;13.60;99.90
5779;DHT22;2916;49.798;10.022;2023-05-07T01:48:45;13.50;99.90
5779;DHT22;2916;49.798;10.022;2023-05-07T01:51:12;13.50;99.90
5779;DHT22;2916;49.798;10.022;2023-05-07T01:53:40;13.50;99.90
5779;DHT22;2916;49.798;10.022;2023-05-07T01:56:08;13.50;99.90
5779;DHT22;2916;49.798;10.022;2023-05-07T01:58:37;13.40;99.90
5779;DHT22;2916;49.798;10.022;2023-05-07T02:01:04;13.30;99.90
5779;DHT22;2916;49.798;10.022;2023-05-07T02:03:31;13.30;99.90
5779;DHT22;2916;49.798;10.022;2023-05-07T02:05:59;13.30;99.90
5779;DHT22;2916;49.798;10.022;2023-05-07T02:08:26;13.20;99.90
5779;DHT22;2916;49.798;10.022;2023-05-07T02:10:53;13.10;99.90
5779;DHT22;2916;49.798;10.022;2023-05-07T02:13:21;13.10;99.90
5779;DHT22;2916;49.798;10.022;2023-05-07T02:15:51;13.00;99.90
5779;DHT22;2916;49.798;10.022;2023-05-07T02:18:19;12.90;99.90
5779;DHT22;2916;49.798;10.022;2023-05-07T02:20:46;12.90;99.90
5779;DHT22;2916;49.798;10.022;2023-05-07T02:23:13;12.90;99.90
5779;DHT22;2916;49.798;10.022;2023-05-07T02:25:40;12.90;99.90
5779;DHT22;2916;49.798;10.022;2023-05-07T02:28:08;12.80;99.90
5779;DHT22;2916;49.798;10.022;2023-05-07T02:30:36;12.80;99.90
5779;DHT22;2916;49.798;10.022;2023-05-07T02:33:05;12.80;99.90
5779;DHT22;2916;49.798;10.022;2023-05-07T02:35:33;12.80;99.90
5779;DHT22;2916;49.798;10.022;2023-05-07T02:38:01;12.80;99.90
5779;DHT22;2916;49.798;10.022;2023-05-07T02:40:28;12.80;99.90
5779;DHT22;2916;49.798;10.022;2023-05-07T02:42:55;12.80;99.90
5779;DHT22;2916;49.798;10.022;2023-05-07T02:45:22;12.80;99.90
5779;DHT22;2916;49.798;10.022;2023-05-07T02:47:49;12.80;99.90
5779;DHT22;2916;49.798;10.022;2023-05-07T02:50:18;12.70;99.90
5779;DHT22;2916;49.798;10.022;2023-05-07T02:52:45;12.70;99.90
5779;DHT22;2916;49.798;10.022;2023-05-07T02:55:13;12.70;99.90
5779;DHT22;2916;49.798;10.022;2023-05-07T02:57:40;12.70;99.90
5779;DHT22;2916;49.798;10.022;2023-05-07T03:00:11;12.70;99.90
5779;DHT22;2916;49.798;10.022;2023-05-07T03:02:40;12.70;99.90
5779;DHT22;2916;49.798;10.022;2023-05-07T03:05:07;12.70;99.90
5779;DHT22;2916;49.798;10.022;2023-05-07T03:07:36;12.60;99.90
5779;DHT22;2916;49.798;10.022;2023-05-07T03:10:04;12.60;99.90
5779;DHT22;2916;49.798;10.022;2023-05-07T03:12:32;12.60;99.90
5779;DHT22;2916;49.798;10.022;2023-05-07T03:14:59;12.60;99.90
5779;DHT22;2916;49.798;10.022;2023-05-07T03:17:26;12.60;99.90
5779;DHT22;2916;49.798;10.022;2023-05-07T03:19:54;12.60;99.90
5779;DHT22;2916;49.798;10.022;2023-05-07T03:22:21;12.50;99.90
5779;DHT22;2916;49.798;10.022;2023-05-07T03:24:50;12.50;99.90
5779;DHT22;2916;49.798;10.022;2023-05-07T03:27:17;12.50;99.90
5779;DHT22;2916;49.798;10.022;2023-05-07T03:29:44;12.60;99.90
5779;DHT22;2916;49.798;10.022;2023-05-07T03:32:11;12.50;99.90
5779;DHT22;2916;49.798;10.022;2023-05-07T03:34:38;12.60;99.90
5779;DHT22;2916;49.798;10.022;2023-05-07T03:37:06;12.60;99.90
5779;DHT22;2916;49.798;10.022;2023-05-07T03:39:33;12.60;99.90
5779;DHT22;2916;49.798;10.022;2023-05-07T03:42:02;12.60;99.90
5779;DHT22;2916;49.798;10.022;2023-05-07T03:44:30;12.60;99.90
5779;DHT22;2916;49.798;10.022;2023-05-07T03:46:57;12.70;99.90
5779;DHT22;2916;49.798;10.022;2023-05-07T03:49:24;12.70;99.90
5779;DHT22;2916;49.798;10.022;2023-05-07T03:51:51;12.70;99.90
5779;DHT22;2916;49.798;10.022;2023-05-07T03:54:18;12.70;99.90
5779;DHT22;2916;49.798;10.022;2023-05-07T03:56:46;12.80;99.90
5779;DHT22;2916;49.798;10.022;2023-05-07T03:59:14;12.80;99.90
5779;DHT22;2916;49.798;10.022;2023-05-07T04:01:41;12.90;99.90
5779;DHT22;2916;49.798;10.022;2023-05-07T04:04:09;12.90;99.90
5779;DHT22;2916;49.798;10.022;2023-05-07T04:06:36;12.90;99.90
5779;DHT22;2916;49.798;10.022;2023-05-07T04:09:04;12.90;99.90
5779;DHT22;2916;49.798;10.022;2023-05-07T04:11:32;12.90;99.90
5779;DHT22;2916;49.798;10.022;2023-05-07T04:13:59;12.90;99.90
5779;DHT22;2916;49.798;10.022;2023-05-07T04:16:27;13.00;99.90
5779;DHT22;2916;49.798;10.022;2023-05-07T04:18:54;13.00;99.90
5779;DHT22;2916;49.798;10.022;2023-05-07T04:21:22;13.00;99.90
5779;DHT22;2916;49.798;10.022;2023-05-07T04:23:49;13.00;99.90
5779;DHT22;2916;49.798;10.022;2023-05-07T04:26:16;13.00;99.90
5779;DHT22;2916;49.798;10.022;2023-05-07T04:28:43;13.00;99.90
5779;DHT22;2916;49.798;10.022;2023-05-07T04:31:10;13.10;99.90
5779;DHT22;2916;49.798;10.022;2023-05-07T04:33:39;13.10;99.90
5779;DHT22;2916;49.798;10.022;2023-05-07T04:36:07;13.10;99.90
5779;DHT22;2916;49.798;10.022;2023-05-07T04:38:34;13.00;99.90
5779;DHT22;2916;49.798;10.022;2023-05-07T04:41:03;13.00;99.90
5779;DHT22;2916;49.798;10.022;2023-05-07T04:43:31;13.00;99.90
5779;DHT22;2916;49.798;10.022;2023-05-07T04:45:59;13.00;99.90
5779;DHT22;2916;49.798;10.022;2023-05-07T04:48:26;13.00;99.90
5779;DHT22;2916;49.798;10.022;2023-05-07T04:50:55;13.00;99.90
5779;DHT22;2916;49.798;10.022;2023-05-07T04:53:23;13.00;99.90
5779;DHT22;2916;49.798;10.022;2023-05-07T04:55:55;13.10;99.90
5779;DHT22;2916;49.798;10.022;2023-05-07T04:58:23;13.00;99.90
5779;DHT22;2916;49.798;10.022;2023-05-07T05:00:50;13.10;99.90
5779;DHT22;2916;49.798;10.022;2023-05-07T05:03:17;13.10;99.90
5779;DHT22;2916;49.798;10.022;2023-05-07T05:05:44;13.10;99.90
5779;DHT22;2916;49.798;10.022;2023-05-07T05:08:13;13.10;99.90
5779;DHT22;2916;49.798;10.022;2023-05-07T05:10:40;13.20;99.90
5779;DHT22;2916;49.798;10.022;2023-05-07T05:13:08;13.30;99.90
5779;DHT22;2916;49.798;10.022;2023-05-07T05:15:38;13.30;99.90
5779;DHT22;2916;49.798;10.022;2023-05-07T05:18:05;13.50;99.90
5779;DHT22;2916;49.798;10.022;2023-05-07T05:20:32;13.50;99.90
5779;DHT22;2916;49.798;10.022;2023-05-07T05:22:59;13.60;99.90
5779;DHT22;2916;49.798;10.022;2023-05-07T05:25:28;13.70;99.90
5779;DHT22;2916;49.798;10.022;2023-05-07T05:27:56;13.70;99.90
5779;DHT22;2916;49.798;10.022;2023-05-07T05:30:23;13.80;99.90
5779;DHT22;2916;49.798;10.022;2023-05-07T05:32:50;13.90;99.90
5779;DHT22;2916;49.798;10.022;2023-05-07T05:35:17;13.90;99.90
5779;DHT22;2916;49.798;10.022;2023-05-07T05:37:44;14.00;99.90
5779;DHT22;2916;49.798;10.022;2023-05-07T05:40:12;14.10;99.90
5779;DHT22;2916;49.798;10.022;2023-05-07T05:42:40;14.10;99.90
5779;DHT22;2916;49.798;10.022;2023-05-07T05:45:09;14.20;99.90
5779;DHT22;2916;49.798;10.022;2023-05-07T05:47:37;14.20;99.90
5779;DHT22;2916;49.798;10.022;2023-05-07T05:50:05;14.30;99.90
5779;DHT22;2916;49.798;10.022;2023-05-07T05:52:33;14.40;99.90
5779;DHT22;2916;49.798;10.022;2023-05-07T05:55:00;14.40;99.90
5779;DHT22;2916;49.798;10.022;2023-05-07T05:57:28;14.50;99.90
5779;DHT22;2916;49.798;10.022;2023-05-07T05:59:56;14.40;99.90
5779;DHT22;2916;49.798;10.022;2023-05-07T06:02:24;14.50;99.90
5779;DHT22;2916;49.798;10.022;2023-05-07T06:04:51;14.50;99.90
5779;DHT22;2916;49.798;10.022;2023-05-07T06:07:18;14.50;99.90
5779;DHT22;2916;49.798;10.022;2023-05-07T06:09:45;14.40;99.90
5779;DHT22;2916;49.798;10.022;2023-05-07T06:12:13;14.50;99.90
5779;DHT22;2916;49.798;10.022;2023-05-07T06:14:42;14.60;99.90
5779;DHT22;2916;49.798;10.022;2023-05-07T06:17:11;14.60;99.90
5779;DHT22;2916;49.798;10.022;2023-05-07T06:19:38;14.70;99.90
5779;DHT22;2916;49.798;10.022;2023-05-07T06:22:05;14.70;99.90
5779;DHT22;2916;49.798;10.022;2023-05-07T06:24:32;14.80;99.90
5779;DHT22;2916;49.798;10.022;2023-05-07T06:26:59;14.90;99.90
5779;DHT22;2916;49.798;10.022;2023-05-07T06:29:27;14.90;99.90
5779;DHT22;2916;49.798;10.022;2023-05-07T06:31:55;15.00;99.90
5779;DHT22;2916;49.798;10.022;2023-05-07T06:34:24;15.20;99.90
5779;DHT22;2916;49.798;10.022;2023-05-07T06:36:52;15.30;99.90
5779;DHT22;2916;49.798;10.022;2023-05-07T06:39:19;15.30;99.90
5779;DHT22;2916;49.798;10.022;2023-05-07T06:41:46;15.50;99.90
5779;DHT22;2916;49.798;10.022;2023-05-07T06:44:13;15.60;99.90
5779;DHT22;2916;49.798;10.022;2023-05-07T06:46:41;15.60;99.90
5779;DHT22;2916;49.798;10.022;2023-05-07T06:49:08;15.60;99.90
5779;DHT22;2916;49.798;10.022;2023-05-07T06:51:37;15.60;99.90
5779;DHT22;2916;49.798;10.022;2023-05-07T06:54:04;15.80;99.90
5779;DHT22;2916;49.798;10.022;2023-05-07T06:56:32;16.20;99.90
5779;DHT22;2916;49.798;10.022;2023-05-07T06:59:00;16.80;99.90
5779;DHT22;2916;49.798;10.022;2023-05-07T07:01:27;17.20;99.90
5779;DHT22;2916;49.798;10.022;2023-05-07T07:03:54;17.40;99.90
5779;DHT22;2916;49.798;10.022;2023-05-07T07:06:22;17.00;99.90
5779;DHT22;2916;49.798;10.022;2023-05-07T07:08:51;16.70;99.90
5779;DHT22;2916;49.798;10.022;2023-05-07T07:11:18;16.80;99.90
5779;DHT22;2916;49.798;10.022;2023-05-07T07:13:46;16.90;99.90
5779;DHT22;2916;49.798;10.022;2023-05-07T07:16:13;16.70;99.90
5779;DHT22;2916;49.798;10.022;2023-05-07T07:18:40;16.40;99.90
5779;DHT22;2916;49.798;10.022;2023-05-07T07:21:07;16.30;99.90
5779;DHT22;2916;49.798;10.022;2023-05-07T07:23:35;16.70;99.90
5779;DHT22;2916;49.798;10.022;2023-05-07T07:26:04;16.80;99.90
5779;DHT22;2916;49.798;10.022;2023-05-07T07:28:32;17.50;99.90
5779;DHT22;2916;49.798;10.022;2023-05-07T07:30:59;18.00;95.80
5779;DHT22;2916;49.798;10.022;2023-05-07T07:33:26;18.60;94.00
5779;DHT22;2916;49.798;10.022;2023-05-07T07:35:55;18.60;74.70
5779;DHT22;2916;49.798;10.022;2023-05-07T07:38:22;19.00;65.70
5779;DHT22;2916;49.798;10.022;2023-05-07T07:40:49;19.40;63.60
5779;DHT22;2916;49.798;10.022;2023-05-07T07:43:18;19.60;63.10
5779;DHT22;2916;49.798;10.022;2023-05-07T07:45:45;20.10;45.80
5779;DHT22;2916;49.798;10.022;2023-05-07T07:48:12;20.10;44.10
5779;DHT22;2916;49.798;10.022;2023-05-07T07:50:39;20.00;42.60
5779;DHT22;2916;49.798;10.022;2023-05-07T07:53:06;20.10;42.40
5779;DHT22;2916;49.798;10.022;2023-05-07T07:55:38;20.50;43.00
5779;DHT22;2916;49.798;10.022;2023-05-07T07:58:06;19.60;44.80
5779;DHT22;2916;49.798;10.022;2023-05-07T08:00:35;20.30;42.40
5779;DHT22;2916;49.798;10.022;2023-05-07T08:03:02;20.50;32.70
5779;DHT22;2916;49.798;10.022;2023-05-07T08:05:30;20.40;33.80
5779;DHT22;2916;49.798;10.022;2023-05-07T08:07:57;20.30;31.10
5779;DHT22;2916;49.798;10.022;2023-05-07T08:10:25;20.20;32.30
5779;DHT22;2916;49.798;10.022;2023-05-07T08:12:52;19.40;27.90
5779;DHT22;2916;49.798;10.022;2023-05-07T08:15:19;19.40;29.60
5779;DHT22;2916;49.798;10.022;2023-05-07T08:17:48;18.70;38.40
5779;DHT22;2916;49.798;10.022;2023-05-07T08:20:15;18.80;43.20
5779;DHT22;2916;49.798;10.022;2023-05-07T08:22:42;18.60;45.10
5779;DHT22;2916;49.798;10.022;2023-05-07T08:25:09;18.30;43.50
5779;DHT22;2916;49.798;10.022;2023-05-07T08:27:36;18.20;42.70
5779;DHT22;2916;49.798;10.022;2023-05-07T08:30:05;18.00;46.60
5779;DHT22;2916;49.798;10.022;2023-05-07T08:32:33;18.10;52.00
5779;DHT22;2916;49.798;10.022;2023-05-07T08:35:01;18.00;50.00
5779;DHT22;2916;49.798;10.022;2023-05-07T08:37:29;18.00;62.60
5779;DHT22;2916;49.798;10.022;2023-05-07T08:39:56;18.10;55.50
5779;DHT22;2916;49.798;10.022;2023-05-07T08:42:24;18.30;54.00
5779;DHT22;2916;49.798;10.022;2023-05-07T08:44:51;18.30;57.40
5779;DHT22;2916;49.798;10.022;2023-05-07T08:47:27;18.30;53.40
5779;DHT22;2916;49.798;10.022;2023-05-07T08:50:02;18.40;59.90
5779;DHT22;2916;49.798;10.022;2023-05-07T08:52:30;18.70;51.30
5779;DHT22;2916;49.798;10.022;2023-05-07T08:54:57;18.70;50.20
5779;DHT22;2916;49.798;10.022;2023-05-07T08:57:25;18.80;48.40
5779;DHT22;2916;49.798;10.022;2023-05-07T08:59:53;18.80;50.70
5779;DHT22;2916;49.798;10.022;2023-05-07T09:02:20;18.80;51.90
5779;DHT22;2916;49.798;10.022;2023-05-07T09:04:47;18.50;46.90
5779;DHT22;2916;49.798;10.022;2023-05-07T09:07:16;19.30;53.60
5779;DHT22;2916;49.798;10.022;2023-05-07T09:09:44;18.90;42.50
5779;DHT22;2916;49.798;10.022;2023-05-07T09:12:11;19.60;52.10
5779;DHT22;2916;49.798;10.022;2023-05-07T09:14:38;20.00;44.10
5779;DHT22;2916;49.798;10.022;2023-05-07T09:17:05;19.90;39.90
5779;DHT22;2916;49.798;10.022;2023-05-07T09:19:32;20.10;36.80
5779;DHT22;2916;49.798;10.022;2023-05-07T09:22:00;20.20;28.30
5779;DHT22;2916;49.798;10.022;2023-05-07T09:24:29;20.00;30.30
5779;DHT22;2916;49.798;10.022;2023-05-07T09:27:00;20.40;29.30
5779;DHT22;2916;49.798;10.022;2023-05-07T09:29:28;20.70;26.30
5779;DHT22;2916;49.798;10.022;2023-05-07T09:32:00;20.10;30.30
5779;DHT22;2916;49.798;10.022;2023-05-07T09:34:29;20.40;25.50
5779;DHT22;2916;49.798;10.022;2023-05-07T09:36:56;20.30;24.90
5779;DHT22;2916;49.798;10.022;2023-05-07T09:39:25;20.60;20.20
5779;DHT22;2916;49.798;10.022;2023-05-07T09:41:54;20.90;23.20
5779;DHT22;2916;49.798;10.022;2023-05-07T09:44:22;21.20;23.10
5779;DHT22;2916;49.798;10.022;2023-05-07T09:46:54;21.70;23.10
5779;DHT22;2916;49.798;10.022;2023-05-07T09:49:23;22.50;21.10
5779;DHT22;2916;49.798;10.022;2023-05-07T09:51:51;22.80;11.30
5779;DHT22;2916;49.798;10.022;2023-05-07T09:54:19;23.30;7.60
5779;DHT22;2916;49.798;10.022;2023-05-07T09:56:48;22.80;2.20
5779;DHT22;2916;49.798;10.022;2023-05-07T09:59:17;22.70;4.40
5779;DHT22;2916;49.798;10.022;2023-05-07T10:01:46;21.70;6.80
5779;DHT22;2916;49.798;10.022;2023-05-07T10:04:16;22.00;9.50
5779;DHT22;2916;49.798;10.022;2023-05-07T10:06:44;21.80;7.60
5779;DHT22;2916;49.798;10.022;2023-05-07T10:09:14;22.30;6.70
5779;DHT22;2916;49.798;10.022;2023-05-07T10:11:42;22.80;1.00
5779;DHT22;2916;49.798;10.022;2023-05-07T10:14:10;22.30;3.40
5779;DHT22;2916;49.798;10.022;2023-05-07T10:16:41;22.10;1.00
5779;DHT22;2916;49.798;10.022;2023-05-07T10:19:09;23.10;1.00
5779;DHT22;2916;49.798;10.022;2023-05-07T10:21:37;22.70;1.00
5779;DHT22;2916;49.798;10.022;2023-05-07T10:24:08;22.00;1.00
5779;DHT22;2916;49.798;10.022;2023-05-07T10:26:42;22.30;1.20
5779;DHT22;2916;49.798;10.022;2023-05-07T10:29:14;22.30;1.00
5779;DHT22;2916;49.798;10.022;2023-05-07T10:31:55;22.70;1.00
5779;DHT22;2916;49.798;10.022;2023-05-07T10:34:29;22.80;1.00
5779;DHT22;2916;49.798;10.022;2023-05-07T10:37:02;22.70;1.00
5779;DHT22;2916;49.798;10.022;2023-05-07T10:39:30;22.80;1.00
5779;DHT22;2916;49.798;10.022;2023-05-07T10:42:07;23.40;1.00
5779;DHT22;2916;49.798;10.022;2023-05-07T10:44:35;24.40;1.00
5779;DHT22;2916;49.798;10.022;2023-05-07T10:47:06;23.60;1.00
5779;DHT22;2916;49.798;10.022;2023-05-07T10:49:35;23.20;1.00
5779;DHT22;2916;49.798;10.022;2023-05-07T10:52:11;23.00;1.00
5779;DHT22;2916;49.798;10.022;2023-05-07T10:54:41;22.60;1.00
5779;DHT22;2916;49.798;10.022;2023-05-07T10:57:36;22.70;1.00
5779;DHT22;2916;49.798;10.022;2023-05-07T11:00:42;23.10;1.00
5779;DHT22;2916;49.798;10.022;2023-05-07T11:03:18;22.70;1.00
5779;DHT22;2916;49.798;10.022;2023-05-07T11:05:47;22.20;1.00
5779;DHT22;2916;49.798;10.022;2023-05-07T11:08:53;22.20;1.00
5779;DHT22;2916;49.798;10.022;2023-05-07T11:11:45;22.10;1.00
5779;DHT22;2916;49.798;10.022;2023-05-07T11:14:13;22.60;1.00
5779;DHT22;2916;49.798;10.022;2023-05-07T11:16:43;22.70;1.00
5779;DHT22;2916;49.798;10.022;2023-05-07T11:19:12;22.80;1.00
5779;DHT22;2916;49.798;10.022;2023-05-07T11:21:41;23.10;1.00
5779;DHT22;2916;49.798;10.022;2023-05-07T11:24:09;23.10;1.00
5779;DHT22;2916;49.798;10.022;2023-05-07T11:26:47;23.00;1.00
5779;DHT22;2916;49.798;10.022;2023-05-07T11:29:16;22.60;1.00
5779;DHT22;2916;49.798;10.022;2023-05-07T11:31:49;22.40;1.00
5779;DHT22;2916;49.798;10.022;2023-05-07T11:34:22;23.10;1.00
5779;DHT22;2916;49.798;10.022;2023-05-07T11:36:50;23.20;1.00
5779;DHT22;2916;49.798;10.022;2023-05-07T11:39:30;23.20;1.00
5779;DHT22;2916;49.798;10.022;2023-05-07T11:41:59;23.20;1.00
5779;DHT22;2916;49.798;10.022;2023-05-07T11:44:41;23.00;1.00
5779;DHT22;2916;49.798;10.022;2023-05-07T11:47:10;23.40;1.00
5779;DHT22;2916;49.798;10.022;2023-05-07T11:49:39;23.30;1.00
5779;DHT22;2916;49.798;10.022;2023-05-07T11:52:07;23.30;1.00
5779;DHT22;2916;49.798;10.022;2023-05-07T11:54:37;24.00;1.00
5779;DHT22;2916;49.798;10.022;2023-05-07T11:57:05;24.40;1.00
5779;DHT22;2916;49.798;10.022;2023-05-07T11:59:38;24.00;1.00
5779;DHT22;2916;49.798;10.022;2023-05-07T12:02:06;23.40;1.00
5779;DHT22;2916;49.798;10.022;2023-05-07T12:04:34;23.60;1.00
5779;DHT22;2916;49.798;10.022;2023-05-07T12:07:02;24.20;1.00
5779;DHT22;2916;49.798;10.022;2023-05-07T12:09:31;24.60;1.00
5779;DHT22;2916;49.798;10.022;2023-05-07T12:12:03;24.30;1.00
5779;DHT22;2916;49.798;10.022;2023-05-07T12:14:31;24.60;1.00
5779;DHT22;2916;49.798;10.022;2023-05-07T12:16:59;24.30;1.00
5779;DHT22;2916;49.798;10.022;2023-05-07T12:19:29;23.60;1.00
5779;DHT22;2916;49.798;10.022;2023-05-07T12:21:57;24.30;1.00
5779;DHT22;2916;49.798;10.022;2023-05-07T12:24:26;24.80;1.00
5779;DHT22;2916;49.798;10.022;2023-05-07T12:26:53;24.50;1.00
5779;DHT22;2916;49.798;10.022;2023-05-07T12:29:21;24.30;1.00
5779;DHT22;2916;49.798;10.022;2023-05-07T12:31:50;24.30;1.00
5779;DHT22;2916;49.798;10.022;2023-05-07T12:34:17;24.20;1.00
5779;DHT22;2916;49.798;10.022;2023-05-07T12:36:44;24.00;1.00
5779;DHT22;2916;49.798;10.022;2023-05-07T12:39:11;23.90;1.00
5779;DHT22;2916;49.798;10.022;2023-05-07T12:42:01;24.50;1.00
5779;DHT22;2916;49.798;10.022;2023-05-07T12:44:30;24.30;1.00
5779;DHT22;2916;49.798;10.022;2023-05-07T12:46:58;24.40;1.00
5779;DHT22;2916;49.798;10.022;2023-05-07T12:49:28;24.50;1.00
5779;DHT22;2916;49.798;10.022;2023-05-07T12:51:55;24.20;1.00
5779;DHT22;2916;49.798;10.022;2023-05-07T12:54:29;24.20;1.00
5779;DHT22;2916;49.798;10.022;2023-05-07T12:57:03;24.70;1.00
5779;DHT22;2916;49.798;10.022;2023-05-07T12:59:33;24.80;1.00
5779;DHT22;2916;49.798;10.022;2023-05-07T13:02:01;24.60;1.00
5779;DHT22;2916;49.798;10.022;2023-05-07T13:04:29;24.80;1.00
5779;DHT22;2916;49.798;10.022;2023-05-07T13:06:56;24.50;1.00
5779;DHT22;2916;49.798;10.022;2023-05-07T13:09:23;24.90;1.00
5779;DHT22;2916;49.798;10.022;2023-05-07T13:11:50;25.20;1.00
5779;DHT22;2916;49.798;10.022;2023-05-07T13:14:19;25.00;1.00
5779;DHT22;2916;49.798;10.022;2023-05-07T13:16:46;25.50;1.00
5779;DHT22;2916;49.798;10.022;2023-05-07T13:19:14;25.00;1.00
5779;DHT22;2916;49.798;10.022;2023-05-07T13:21:44;24.60;1.00
5779;DHT22;2916;49.798;10.022;2023-05-07T13:24:11;24.30;1.00
5779;DHT22;2916;49.798;10.022;2023-05-07T13:26:38;24.00;1.00
5779;DHT22;2916;49.798;10.022;2023-05-07T13:29:05;24.20;1.00
5779;DHT22;2916;49.798;10.022;2023-05-07T13:31:34;24.50;1.00
5779;DHT22;2916;49.798;10.022;2023-05-07T13:34:01;24.20;1.00
5779;DHT22;2916;49.798;10.022;2023-05-07T13:36:28;24.40;1.00
5779;DHT22;2916;49.798;10.022;2023-05-07T13:38:58;23.90;1.00
5779;DHT22;2916;49.798;10.022;2023-05-07T13:41:26;24.20;1.00
5779;DHT22;2916;49.798;10.022;2023-05-07T13:43:53;24.20;1.00
5779;DHT22;2916;49.798;10.022;2023-05-07T13:46:20;24.30;1.00
5779;DHT22;2916;49.798;10.022;2023-05-07T13:48:49;24.20;1.00
5779;DHT22;2916;49.798;10.022;2023-05-07T13:51:17;24.00;1.00
5779;DHT22;2916;49.798;10.022;2023-05-07T13:53:44;24.00;1.00
5779;DHT22;2916;49.798;10.022;2023-05-07T13:56:11;24.10;1.00
5779;DHT22;2916;49.798;10.022;2023-05-07T13:58:39;24.40;1.00
5779;DHT22;2916;49.798;10.022;2023-05-07T14:01:07;24.10;1.00
5779;DHT22;2916;49.798;10.022;2023-05-07T14:03:34;24.10;1.00
5779;DHT22;2916;49.798;10.022;2023-05-07T14:06:04;24.10;1.00
5779;DHT22;2916;49.798;10.022;2023-05-07T14:08:32;24.20;1.00
5779;DHT22;2916;49.798;10.022;2023-05-07T14:10:59;24.50;1.00
5779;DHT22;2916;49.798;10.022;2023-05-07T14:13:26;24.10;1.00
5779;DHT22;2916;49.798;10.022;2023-05-07T14:15:56;24.10;1.00
5779;DHT22;2916;49.798;10.022;2023-05-07T14:18:23;24.20;1.00
5779;DHT22;2916;49.798;10.022;2023-05-07T14:20:50;24.70;1.00
5779;DHT22;2916;49.798;10.022;2023-05-07T14:23:19;24.50;1.00
5779;DHT22;2916;49.798;10.022;2023-05-07T14:25:52;24.00;1.00
5779;DHT22;2916;49.798;10.022;2023-05-07T14:28:19;24.40;1.00
5779;DHT22;2916;49.798;10.022;2023-05-07T14:30:47;24.30;1.00
5779;DHT22;2916;49.798;10.022;2023-05-07T14:33:14;24.60;1.00
5779;DHT22;2916;49.798;10.022;2023-05-07T14:35:41;24.80;1.00
5779;DHT22;2916;49.798;10.022;2023-05-07T14:38:12;25.00;1.00
5779;DHT22;2916;49.798;10.022;2023-05-07T14:40:41;25.20;1.00
5779;DHT22;2916;49.798;10.022;2023-05-07T14:43:08;25.20;1.00
5779;DHT22;2916;49.798;10.022;2023-05-07T14:45:35;25.20;1.00
5779;DHT22;2916;49.798;10.022;2023-05-07T14:48:03;25.40;1.00
5779;DHT22;2916;49.798;10.022;2023-05-07T14:50:31;25.40;1.00
5779;DHT22;2916;49.798;10.022;2023-05-07T14:52:58;25.40;1.00
5779;DHT22;2916;49.798;10.022;2023-05-07T14:55:25;25.50;1.00
5779;DHT22;2916;49.798;10.022;2023-05-07T14:57:55;25.20;1.00
5779;DHT22;2916;49.798;10.022;2023-05-07T15:00:22;24.70;1.00
5779;DHT22;2916;49.798;10.022;2023-05-07T15:02:50;24.30;1.00
5779;DHT22;2916;49.798;10.022;2023-05-07T15:05:17;24.80;1.00
5779;DHT22;2916;49.798;10.022;2023-05-07T15:07:45;24.60;1.00
5779;DHT22;2916;49.798;10.022;2023-05-07T15:10:12;24.90;1.00
5779;DHT22;2916;49.798;10.022;2023-05-07T15:12:39;25.10;1.00
5779;DHT22;2916;49.798;10.022;2023-05-07T15:15:09;25.10;1.00
5779;DHT22;2916;49.798;10.022;2023-05-07T15:17:37;25.00;1.00
5779;DHT22;2916;49.798;10.022;2023-05-07T15:20:06;25.00;1.00
5779;DHT22;2916;49.798;10.022;2023-05-07T15:22:34;25.10;1.00
5779;DHT22;2916;49.798;10.022;2023-05-07T15:25:03;25.00;1.00
5779;DHT22;2916;49.798;10.022;2023-05-07T15:27:31;25.00;1.00
5779;DHT22;2916;49.798;10.022;2023-05-07T15:29:58;25.00;1.00
5779;DHT22;2916;49.798;10.022;2023-05-07T15:32:27;25.00;1.00
5779;DHT22;2916;49.798;10.022;2023-05-07T15:34:54;25.00;1.00
5779;DHT22;2916;49.798;10.022;2023-05-07T15:37:21;25.00;1.00
5779;DHT22;2916;49.798;10.022;2023-05-07T15:39:48;24.80;1.00
5779;DHT22;2916;49.798;10.022;2023-05-07T15:42:15;24.70;1.00
5779;DHT22;2916;49.798;10.022;2023-05-07T15:44:43;24.60;1.00
5779;DHT22;2916;49.798;10.022;2023-05-07T15:47:10;24.60;1.00
5779;DHT22;2916;49.798;10.022;2023-05-07T15:49:40;24.30;1.00
5779;DHT22;2916;49.798;10.022;2023-05-07T15:52:08;24.30;1.00
5779;DHT22;2916;49.798;10.022;2023-05-07T15:54:36;24.50;1.00
5779;DHT22;2916;49.798;10.022;2023-05-07T15:57:04;24.40;1.00
5779;DHT22;2916;49.798;10.022;2023-05-07T15:59:31;24.40;1.00
5779;DHT22;2916;49.798;10.022;2023-05-07T16:01:59;24.30;1.00